Time;durP1;ratioP1;P1;durP2;ratioP2;P2;SDS_P1;SDS_P2;PMS_P1;PMS_P2;Temp;Humidity;BMP_temperature;BMP_pressure;BME280_temperature;BME280_humidity;BME280_pressure;Samples;Min_cycle;Max_cycle;Signal;HPM_P1;HPM_P2
2022/11/05 00:11:01;;;;;;;13.40;9.13;;;;;;;9.38;100.00;98917.13;4976563;28;20343;-79
2022/11/05 00:19:08;;;;;;;11.93;8.83;;;;;;;9.42;100.00;98908.88;4975112;28;20192;-80
2022/11/05 00:27:11;;;;;;;12.97;8.37;;;;;;;9.23;100.00;98929.47;4916863;29;20205;-80
2022/11/05 00:29:41;;;;;;;13.07;8.57;;;;;;;9.27;100.00;98924.88;4915225;29;20194;-80
2022/11/05 00:32:11;;;;;;;14.60;8.10;;;;;;;9.21;100.00;98922.59;4913653;29;20294;-80
2022/11/05 00:34:40;;;;;;;14.87;8.10;;;;;;;9.14;100.00;98930.03;4909497;29;20269;-80
2022/11/05 00:37:08;;;;;;;13.13;8.70;;;;;;;9.24;100.00;98927.69;4916731;29;20201;-80
2022/11/05 00:39:37;;;;;;;17.10;9.50;;;;;;;9.24;100.00;98927.69;4912158;29;20229;-80
2022/11/05 00:45:01;;;;;;;11.97;8.40;;;;;;;9.08;100.00;98926.00;4912851;29;20276;-80
2022/11/05 00:50:16;;;;;;;14.23;9.50;;;;;;;9.24;100.00;98928.53;4915786;29;20206;-80
2022/11/05 00:55:36;;;;;;;12.40;8.93;;;;;;;9.21;100.00;98934.00;4963184;28;20196;-80
2022/11/05 00:58:07;;;;;;;13.53;8.80;;;;;;;9.18;100.00;98936.84;4975715;28;20235;-81
2022/11/05 01:00:39;;;;;;;15.47;9.27;;;;;;;9.24;100.00;98941.75;4954437;29;20268;-80
2022/11/05 01:03:09;;;;;;;14.10;9.27;;;;;;;9.12;100.00;98942.50;4954553;29;20648;-81
2022/11/05 01:05:40;;;;;;;13.70;9.53;;;;;;;9.20;100.00;98949.97;4917445;29;20206;-80
2022/11/05 01:08:09;;;;;;;11.70;8.97;;;;;;;9.09;100.00;98953.28;4916941;29;20201;-80
2022/11/05 01:10:40;;;;;;;15.17;9.60;;;;;;;8.98;100.00;98956.56;4917247;29;20310;-80
2022/11/05 01:13:14;;;;;;;16.30;9.20;;;;;;;9.03;100.00;98951.84;4912599;29;20225;-80
2022/11/05 01:15:49;;;;;;;13.43;9.70;;;;;;;9.06;100.00;98956.94;4917198;29;20228;-80
2022/11/05 01:18:20;;;;;;;14.97;8.87;;;;;;;8.93;100.00;98957.78;4916786;29;20202;-80
2022/11/05 01:20:51;;;;;;;13.07;9.30;;;;;;;8.94;100.00;98954.19;4914282;29;20241;-80
2022/11/05 01:23:19;;;;;;;15.07;9.13;;;;;;;9.01;100.00;98963.44;4902225;29;20277;-81
2022/11/05 01:25:50;;;;;;;14.50;9.57;;;;;;;8.99;100.00;98962.69;4930428;29;20198;-80
2022/11/05 01:28:19;;;;;;;14.30;9.03;;;;;;;9.02;100.00;98975.72;4933468;29;20240;-80
2022/11/05 01:30:55;;;;;;;14.63;9.23;;;;;;;9.05;100.00;98973.72;4961553;28;20249;-80
2022/11/05 01:33:24;;;;;;;14.90;9.23;;;;;;;8.93;100.00;98973.63;4971292;28;20195;-81
2022/11/05 01:35:53;;;;;;;14.07;9.07;;;;;;;8.81;100.00;98980.50;4972542;28;20192;-80
2022/11/05 01:38:21;;;;;;;14.70;10.00;;;;;;;8.80;100.00;98992.00;4972294;28;20258;-80
2022/11/05 01:40:51;;;;;;;13.80;10.10;;;;;;;8.81;100.00;98993.69;4975722;28;20270;-81
2022/11/05 01:43:21;;;;;;;12.87;9.07;;;;;;;8.99;100.00;98987.31;4972009;28;20656;-80
2022/11/05 01:46:01;;;;;;;15.67;9.73;;;;;;;9.02;100.00;98981.84;4974547;28;20203;-80
2022/11/05 01:48:32;;;;;;;16.83;9.73;;;;;;;9.02;100.00;98988.91;4969666;28;20243;-80
2022/11/05 01:51:04;;;;;;;15.27;9.83;;;;;;;8.82;100.00;98993.59;4970912;28;20223;-80
2022/11/05 01:53:37;;;;;;;13.47;9.77;;;;;;;8.86;100.00;98996.91;4972110;28;20199;-80
2022/11/05 01:56:11;;;;;;;15.10;9.60;;;;;;;8.86;100.00;98995.13;4970259;28;20258;-80
2022/11/05 01:58:43;;;;;;;15.60;10.57;;;;;;;8.96;100.00;99002.50;4972079;28;20717;-80
2022/11/05 02:01:13;;;;;;;14.13;9.77;;;;;;;8.88;100.00;98995.91;4940990;28;20215;-80
2022/11/05 02:03:43;;;;;;;15.80;10.07;;;;;;;9.02;100.00;99002.13;4973098;28;20191;-80
2022/11/05 02:06:13;;;;;;;16.00;10.40;;;;;;;9.09;100.00;99011.41;4970622;28;20203;-81
2022/11/05 02:08:54;;;;;;;17.90;11.00;;;;;;;9.11;100.00;99006.84;4949633;29;20220;-79
2022/11/05 02:11:22;;;;;;;13.07;9.70;;;;;;;9.15;100.00;99011.00;4944799;29;20231;-80
2022/11/05 02:13:51;;;;;;;15.87;10.57;;;;;;;9.15;100.00;99013.66;4949693;29;20224;-80
2022/11/05 02:16:33;;;;;;;13.90;9.57;;;;;;;9.10;100.00;99013.09;4945194;29;20231;-80
2022/11/05 02:19:15;;;;;;;13.80;9.37;;;;;;;9.08;100.00;99023.75;4948512;29;20193;-80
2022/11/05 02:22:19;;;;;;;18.50;10.50;;;;;;;9.05;100.00;99020.44;4949328;29;20238;-80
2022/11/05 02:25:12;;;;;;;14.70;9.40;;;;;;;9.10;100.00;99021.88;4947720;28;20196;-80
2022/11/05 02:28:03;;;;;;;16.93;9.50;;;;;;;9.22;100.00;99027.34;4968222;28;20208;-80
2022/11/05 02:30:46;;;;;;;18.07;10.33;;;;;;;9.31;100.00;99024.16;4971429;28;20207;-80
2022/11/05 02:33:36;;;;;;;16.37;10.17;;;;;;;9.24;100.00;99026.31;4973552;28;20243;-81
2022/11/05 02:36:21;;;;;;;16.97;10.10;;;;;;;9.23;100.00;99021.13;4974022;28;20196;-81
2022/11/05 02:38:58;;;;;;;16.90;9.63;;;;;;;9.24;100.00;99025.44;4974348;28;20615;-80
2022/11/05 02:41:35;;;;;;;13.77;9.90;;;;;;;9.21;100.00;99023.00;4972701;28;20242;-80
2022/11/05 02:44:15;;;;;;;14.33;9.83;;;;;;;9.20;100.00;99024.81;4967002;28;20623;-80
2022/11/05 02:46:56;;;;;;;15.17;10.20;;;;;;;9.10;100.00;99018.38;4968841;28;20214;-80
2022/11/05 02:49:36;;;;;;;14.53;9.43;;;;;;;9.16;100.00;99021.47;4973103;28;20270;-80
2022/11/05 02:52:09;;;;;;;16.43;10.30;;;;;;;9.10;100.00;99016.59;4970063;28;20223;-81
2022/11/05 02:54:44;;;;;;;15.80;10.33;;;;;;;9.12;100.00;99027.06;4974231;28;20196;-80
2022/11/05 02:57:13;;;;;;;14.60;10.30;;;;;;;9.11;100.00;99023.56;4971879;28;20199;-80
2022/11/05 02:59:43;;;;;;;15.17;10.03;;;;;;;9.05;100.00;99021.28;4973211;28;20196;-80
2022/11/05 03:02:13;;;;;;;17.03;10.70;;;;;;;9.04;100.00;99022.22;4950060;28;20244;-81
2022/11/05 03:04:42;;;;;;;15.10;9.67;;;;;;;9.09;100.00;99024.59;4949057;28;20226;-80
2022/11/05 03:07:35;;;;;;;23.07;11.40;;;;;;;9.04;100.00;99031.94;4950307;28;20204;-80
2022/11/05 03:10:32;;;;;;;15.70;10.13;;;;;;;9.10;100.00;99035.06;4935202;29;20196;-80
2022/11/05 03:13:14;;;;;;;16.57;10.70;;;;;;;9.09;100.00;99032.53;4952845;28;20209;-80
2022/11/05 03:15:54;;;;;;;16.63;10.40;;;;;;;9.06;100.00;99041.47;4949132;28;20196;-80
2022/11/05 03:18:30;;;;;;;18.57;11.00;;;;;;;9.01;100.00;99042.69;4948804;28;20228;-81
2022/11/05 03:21:04;;;;;;;15.60;10.90;;;;;;;9.09;100.00;99048.38;4966173;28;20203;-80
2022/11/05 03:23:40;;;;;;;17.13;11.73;;;;;;;9.13;100.00;99053.38;4967445;28;20243;-81
2022/11/05 03:26:17;;;;;;;15.10;10.50;;;;;;;9.12;100.00;99051.69;4971286;28;20199;-81
2022/11/05 03:28:50;;;;;;;18.47;11.23;;;;;;;9.00;100.00;99048.94;4971123;28;20192;-80
2022/11/05 03:31:20;;;;;;;16.10;10.27;;;;;;;8.96;100.00;99045.59;4971257;28;20259;-80
2022/11/05 03:33:52;;;;;;;19.93;12.23;;;;;;;9.06;100.00;99054.69;4972484;28;20204;-81
2022/11/05 03:36:25;;;;;;;20.03;11.37;;;;;;;9.05;100.00;99052.97;4973085;28;20274;-80
2022/11/05 03:38:57;;;;;;;17.70;11.40;;;;;;;9.08;100.00;99054.63;4976045;28;20204;-80
2022/11/05 03:41:28;;;;;;;18.57;11.20;;;;;;;8.98;100.00;99064.03;4977072;28;20278;-80
2022/11/05 03:44:00;;;;;;;17.87;11.30;;;;;;;8.94;100.00;99062.50;4977259;28;20199;-80
2022/11/05 03:46:34;;;;;;;19.87;11.93;;;;;;;8.94;100.00;99062.50;4969836;28;20282;-80
2022/11/05 03:49:07;;;;;;;19.80;12.30;;;;;;;8.86;100.00;99070.84;4974167;28;20199;-80
2022/11/05 03:51:42;;;;;;;17.67;12.10;;;;;;;8.90;100.00;99069.75;4992984;28;20235;-80
2022/11/05 03:54:11;;;;;;;21.23;12.30;;;;;;;8.74;100.00;99068.94;4996170;28;20233;-80
2022/11/05 03:56:46;;;;;;;20.93;11.90;;;;;;;8.72;100.00;99071.66;4992823;28;20195;-80
2022/11/05 03:59:15;;;;;;;19.63;12.77;;;;;;;8.69;100.00;99081.56;4996047;28;20194;-80
2022/11/05 04:01:45;;;;;;;14.63;11.20;;;;;;;8.61;100.00;99079.34;4996221;28;20196;-80
2022/11/05 04:04:16;;;;;;;18.10;12.50;;;;;;;8.58;100.00;99083.00;4991289;28;20203;-80
2022/11/05 04:15:01;;;;;;;16.30;12.23;;;;;;;8.40;100.00;99091.16;4916074;29;20202;-81
2022/11/05 04:17:28;;;;;;;19.13;12.50;;;;;;;8.38;100.00;99095.63;4901673;29;20194;-80
2022/11/05 04:25:30;;;;;;;17.33;11.23;;;;;;;8.40;100.00;99099.91;4917032;29;20209;-80
2022/11/05 04:28:00;;;;;;;21.90;12.57;;;;;;;8.36;100.00;99103.63;4901070;29;20197;-80
2022/11/05 04:30:27;;;;;;;18.87;11.70;;;;;;;8.29;100.00;99104.88;4974140;28;20199;-80
2022/11/05 04:33:01;;;;;;;17.30;11.67;;;;;;;8.26;100.00;99105.91;4995828;28;20264;-81
2022/11/05 04:35:33;;;;;;;16.10;11.67;;;;;;;8.25;100.00;99112.13;4991549;28;20207;-80
2022/11/05 04:38:02;;;;;;;14.87;10.60;;;;;;;8.25;100.00;99113.91;4995628;28;20335;-80
2022/11/05 04:40:31;;;;;;;22.20;11.03;;;;;;;7.95;100.00;99117.28;4995723;28;20199;-80
2022/11/05 04:43:02;;;;;;;151.77;15.77;;;;;;;8.09;100.00;99123.59;4993395;28;20215;-80
2022/11/05 04:45:33;;;;;;;48.87;11.30;;;;;;;8.08;100.00;99124.53;4993884;28;20199;-80
2022/11/05 04:48:02;;;;;;;87.03;14.17;;;;;;;8.07;100.00;99130.75;4991978;28;20201;-79
2022/11/05 04:50:33;;;;;;;66.97;13.20;;;;;;;7.99;100.00;99134.63;4990675;28;20230;-80
2022/11/05 04:53:02;;;;;;;67.97;13.17;;;;;;;7.99;100.00;99134.63;4995347;28;20661;-80
2022/11/05 04:55:31;;;;;;;44.37;11.33;;;;;;;8.03;100.00;99140.63;4992178;28;20226;-80
2022/11/05 04:58:00;;;;;;;108.20;14.60;;;;;;;8.11;100.00;99145.50;4992483;28;20203;-81
2022/11/05 05:00:29;;;;;;;38.30;11.67;;;;;;;8.16;100.00;99148.72;4992641;28;20230;-81
2022/11/05 05:02:58;;;;;;;67.27;13.03;;;;;;;8.17;100.00;99140.72;4995181;28;20218;-80
2022/11/05 05:05:29;;;;;;;14.97;10.00;;;;;;;8.22;100.00;99143.13;4993004;28;20253;-80
2022/11/05 05:08:04;;;;;;;22.07;11.03;;;;;;;8.20;100.00;99148.47;4994928;28;20642;-80
2022/11/05 05:10:32;;;;;;;28.63;11.00;;;;;;;8.19;100.00;99148.53;4935028;29;20193;-80
2022/11/05 05:13:02;;;;;;;23.97;12.10;;;;;;;8.20;100.00;99152.88;4932527;29;20229;-80
2022/11/05 05:15:31;;;;;;;17.80;11.40;;;;;;;8.22;100.00;99156.31;4889270;29;20245;-81
2022/11/05 05:18:00;;;;;;;16.20;11.47;;;;;;;8.32;100.00;99161.00;4930600;29;20201;-80
2022/11/05 05:23:18;;;;;;;15.07;10.77;;;;;;;8.43;100.00;99160.44;4934917;29;20217;-80
2022/11/05 05:25:46;;;;;;;22.10;12.60;;;;;;;8.38;100.00;99159.81;4932300;29;20209;-80
2022/11/05 05:28:15;;;;;;;16.40;11.73;;;;;;;8.38;100.00;99156.31;4950259;28;20222;-80
2022/11/05 05:30:43;;;;;;;17.97;12.67;;;;;;;8.40;100.00;99163.25;4951391;29;20232;-80
2022/11/05 05:33:13;;;;;;;19.27;13.03;;;;;;;8.51;100.00;99166.13;4949456;29;20255;-80
2022/11/05 05:35:42;;;;;;;23.37;13.13;;;;;;;8.71;100.00;99165.03;4929599;29;20225;-80
2022/11/05 05:38:10;;;;;;;20.47;13.27;;;;;;;8.64;100.00;99166.31;4930095;29;20249;-80
2022/11/05 05:40:40;;;;;;;19.87;13.67;;;;;;;8.64;100.00;99157.53;4878103;29;20203;-80
2022/11/05 05:43:08;;;;;;;22.00;13.87;;;;;;;8.58;100.00;99161.34;4878114;29;20219;-80
2022/11/05 05:45:38;;;;;;;19.73;12.17;;;;;;;8.54;100.00;99162.47;4874331;29;20213;-80
2022/11/05 05:48:06;;;;;;;19.67;12.97;;;;;;;8.55;100.00;99161.53;4879721;29;20251;-81
2022/11/05 05:50:35;;;;;;;18.63;12.53;;;;;;;8.48;100.00;99162.81;4838734;29;20224;-80
2022/11/05 05:53:03;;;;;;;20.40;13.50;;;;;;;8.50;100.00;99167.09;4844055;29;20231;-80
2022/11/05 05:55:31;;;;;;;17.23;11.73;;;;;;;8.44;100.00;99167.41;4840848;29;20201;-80
2022/11/05 05:58:01;;;;;;;18.97;12.50;;;;;;;8.50;100.00;99169.72;4848756;29;20194;-80
2022/11/05 06:00:31;;;;;;;20.60;12.97;;;;;;;8.53;100.00;99171.34;4894860;29;20206;-80
2022/11/05 06:02:59;;;;;;;21.83;13.23;;;;;;;8.63;100.00;99179.59;4891574;29;20479;-80
2022/11/05 06:05:27;;;;;;;25.07;14.27;;;;;;;8.40;100.00;99173.81;4892519;29;20290;-80
2022/11/05 06:07:56;;;;;;;23.40;14.00;;;;;;;8.58;100.00;99179.84;4900872;29;20236;-81
2022/11/05 06:10:25;;;;;;;24.37;14.10;;;;;;;8.67;100.00;99183.75;4910882;29;20246;-80
2022/11/05 06:12:54;;;;;;;19.93;12.67;;;;;;;8.59;100.00;99178.94;4921583;28;20208;-80
2022/11/05 06:15:24;;;;;;;20.80;14.00;;;;;;;8.62;100.00;99184.03;4972850;28;20331;-80
2022/11/05 06:17:54;;;;;;;20.93;13.07;;;;;;;8.70;100.00;99189.72;4971783;28;20337;-81
2022/11/05 06:20:22;;;;;;;21.50;13.80;;;;;;;8.56;100.00;99192.28;4967625;28;20287;-80
2022/11/05 06:22:55;;;;;;;27.03;14.87;;;;;;;8.70;100.00;99196.81;4939294;28;20210;-81
2022/11/05 06:25:23;;;;;;;26.03;14.73;;;;;;;8.72;100.00;99203.69;4968703;28;20199;-80
2022/11/05 06:27:53;;;;;;;22.10;14.27;;;;;;;8.71;100.00;99209.91;4976641;28;20226;-80
2022/11/05 06:30:23;;;;;;;23.40;13.90;;;;;;;8.76;100.00;99215.78;4992525;28;20241;-80
2022/11/05 06:32:51;;;;;;;23.03;14.30;;;;;;;8.72;100.00;99223.97;4988493;28;20230;-80
2022/11/05 06:35:19;;;;;;;26.77;15.20;;;;;;;8.56;100.00;99216.03;4989734;28;20226;-80
2022/11/05 06:37:48;;;;;;;26.97;14.43;;;;;;;8.57;100.00;99223.00;4986908;28;20203;-80
2022/11/05 06:40:16;;;;;;;25.50;14.23;;;;;;;8.65;100.00;99219.97;4988033;28;20202;-80
2022/11/05 06:42:45;;;;;;;24.00;13.93;;;;;;;8.62;100.00;99215.69;4993661;28;20198;-80
2022/11/05 06:45:13;;;;;;;25.73;13.57;;;;;;;8.64;100.00;99218.25;4993544;28;20219;-80
2022/11/05 06:47:43;;;;;;;24.03;14.60;;;;;;;8.66;100.00;99224.28;4993791;28;20191;-80
2022/11/05 06:50:12;;;;;;;20.20;13.80;;;;;;;8.64;100.00;99221.75;4989544;28;20198;-80
2022/11/05 06:52:41;;;;;;;26.10;14.23;;;;;;;8.59;100.00;99229.94;4990092;28;20202;-80
2022/11/05 06:55:12;;;;;;;24.33;14.27;;;;;;;8.51;100.00;99231.28;4989289;28;20198;-80
2022/11/05 06:57:41;;;;;;;23.90;13.63;;;;;;;8.59;100.00;99235.22;4911003;29;20228;-80
2022/11/05 07:00:11;;;;;;;22.97;14.10;;;;;;;8.49;100.00;99235.78;4910015;29;20641;-80
2022/11/05 07:02:43;;;;;;;22.00;13.90;;;;;;;8.37;100.00;99245.22;4888415;29;20210;-80
2022/11/05 07:05:11;;;;;;;22.30;13.97;;;;;;;8.38;100.00;99246.06;4892003;29;20253;-80
2022/11/05 07:07:41;;;;;;;24.33;13.90;;;;;;;8.21;100.00;99245.16;4893597;29;20201;-80
2022/11/05 07:10:12;;;;;;;25.17;14.40;;;;;;;8.25;100.00;99251.97;4896096;29;20207;-80
2022/11/05 07:12:41;;;;;;;27.33;14.43;;;;;;;8.28;100.00;99262.34;4899475;29;20281;-80
2022/11/05 07:15:11;;;;;;;25.77;14.30;;;;;;;8.26;100.00;99271.28;4888947;29;20202;-80
2022/11/05 07:17:39;;;;;;;21.53;14.17;;;;;;;8.11;100.00;99267.69;4895215;29;20202;-80
2022/11/05 07:20:11;;;;;;;25.20;14.57;;;;;;;8.23;100.00;99279.38;4898353;29;20190;-80
2022/11/05 07:22:39;;;;;;;27.07;16.17;;;;;;;8.25;100.00;99278.34;4896897;29;20235;-80
2022/11/05 07:25:08;;;;;;;26.20;16.17;;;;;;;8.23;100.00;99284.66;4897454;29;20219;-81
2022/11/05 07:27:40;;;;;;;27.03;16.03;;;;;;;8.29;100.00;99293.06;4895799;29;20275;-80
2022/11/05 07:30:10;;;;;;;27.67;14.73;;;;;;;8.31;100.00;99285.09;4952923;29;20196;-80
2022/11/05 07:32:39;;;;;;;26.67;15.30;;;;;;;8.25;100.00;99298.59;4956244;29;20192;-81
2022/11/05 07:35:10;;;;;;;25.47;15.57;;;;;;;8.17;100.00;99298.16;4954831;29;20296;-80
2022/11/05 07:37:43;;;;;;;27.47;14.63;;;;;;;8.18;100.00;99307.75;4954080;29;20215;-81
2022/11/05 07:40:13;;;;;;;29.93;14.67;;;;;;;8.20;100.00;99308.53;4952414;29;20204;-80
2022/11/05 07:42:43;;;;;;;23.90;14.27;;;;;;;8.20;100.00;99308.53;4923708;29;20197;-81
2022/11/05 07:45:11;;;;;;;27.20;15.40;;;;;;;8.17;100.00;99325.38;4955895;29;20299;-81
2022/11/05 07:47:44;;;;;;;25.53;15.03;;;;;;;8.18;100.00;99321.81;4988467;28;20712;-80
2022/11/05 07:50:16;;;;;;;25.83;14.63;;;;;;;8.17;100.00;99324.53;4995191;28;20202;-80
2022/11/05 07:52:44;;;;;;;28.07;15.03;;;;;;;8.08;100.00;99330.28;4993974;28;20223;-81
2022/11/05 07:55:14;;;;;;;29.67;15.63;;;;;;;8.06;100.00;99325.09;4954688;29;20224;-81
2022/11/05 07:57:43;;;;;;;29.33;15.20;;;;;;;8.02;100.00;99334.94;4955878;29;20197;-81
2022/11/05 08:00:15;;;;;;;24.10;13.40;;;;;;;8.18;100.00;99342.06;4956665;28;20230;-80
2022/11/05 08:02:44;;;;;;;24.80;14.87;;;;;;;8.22;100.00;99341.84;4955994;29;20201;-80
2022/11/05 08:05:14;;;;;;;28.10;14.73;;;;;;;8.23;100.00;99346.19;4950724;29;20232;-80
2022/11/05 08:07:42;;;;;;;27.53;14.37;;;;;;;8.27;100.00;99347.72;4954697;29;20228;-81
2022/11/05 08:10:10;;;;;;;26.43;14.43;;;;;;;8.36;100.00;99353.50;4955341;29;20204;-80
2022/11/05 08:12:39;;;;;;;22.77;13.63;;;;;;;8.47;100.00;99353.78;4960530;28;20203;-80
2022/11/05 08:15:09;;;;;;;25.37;14.00;;;;;;;8.45;100.00;99359.16;4991725;28;20206;-81
2022/11/05 08:17:38;;;;;;;25.27;13.53;;;;;;;8.41;100.00;99360.25;4936450;29;20228;-81
2022/11/05 08:20:07;;;;;;;23.80;13.97;;;;;;;8.28;100.00;99359.13;4933353;29;20249;-80
2022/11/05 08:22:39;;;;;;;21.63;13.40;;;;;;;8.21;100.00;99355.97;4900300;29;20213;-80
2022/11/05 08:25:08;;;;;;;24.57;14.03;;;;;;;8.18;100.00;99358.75;4935761;29;20221;-81
2022/11/05 08:27:36;;;;;;;21.63;13.53;;;;;;;8.49;100.00;99360.72;4934357;29;20236;-81
2022/11/05 08:30:07;;;;;;;24.83;13.87;;;;;;;8.75;100.00;99361.09;4897849;29;20206;-81
2022/11/05 08:32:36;;;;;;;26.20;13.37;;;;;;;8.98;100.00;99363.38;4895610;29;20202;-81
2022/11/05 08:35:05;;;;;;;23.77;13.63;;;;;;;9.02;100.00;99358.78;4897361;29;20198;-81
2022/11/05 08:37:34;;;;;;;20.70;12.70;;;;;;;9.07;100.00;99357.59;4908467;29;20225;-80
2022/11/05 08:40:07;;;;;;;24.00;13.17;;;;;;;9.11;100.00;99363.56;4912311;29;20194;-81
2022/11/05 08:42:36;;;;;;;22.03;13.00;;;;;;;9.17;100.00;99355.31;4908170;29;20238;-80
2022/11/05 08:45:06;;;;;;;25.13;12.93;;;;;;;9.34;100.00;99359.63;4911234;29;20253;-80
2022/11/05 08:47:34;;;;;;;18.20;11.60;;;;;;;9.29;100.00;99359.06;4916594;29;20208;-81
2022/11/05 08:50:03;;;;;;;21.13;11.63;;;;;;;9.61;100.00;99350.16;4952257;29;20276;-81
2022/11/05 08:52:31;;;;;;;24.27;11.20;;;;;;;9.38;100.00;99350.63;4960362;28;20226;-80
2022/11/05 08:55:00;;;;;;;34.37;21.70;;;;;;;9.26;100.00;99348.63;4995401;28;20191;-81
2022/11/05 08:57:30;;;;;;;52.27;35.97;;;;;;;9.10;100.00;99357.44;4995157;28;20195;-81
2022/11/05 08:59:58;;;;;;;51.00;35.33;;;;;;;9.38;100.00;99342.69;4990353;28;20666;-80
2022/11/05 09:02:27;;;;;;;22.73;11.23;;;;;;;9.23;100.00;99344.38;4995088;28;20222;-79
2022/11/05 09:04:55;;;;;;;33.83;20.17;;;;;;;9.33;100.00;99342.94;4990212;28;20277;-81
2022/11/05 09:07:24;;;;;;;21.93;14.63;;;;;;;9.63;100.00;99342.13;4992373;28;20242;-81
2022/11/05 09:09:53;;;;;;;22.00;13.63;;;;;;;10.09;100.00;99344.75;4989951;28;20257;-80
2022/11/05 09:12:22;;;;;;;20.97;15.00;;;;;;;9.71;100.00;99330.19;4945511;28;20268;-80
2022/11/05 09:14:52;;;;;;;17.67;11.10;;;;;;;10.13;100.00;99325.09;4991441;28;20191;-81
2022/11/05 09:17:22;;;;;;;17.63;9.70;;;;;;;10.48;100.00;99320.38;4992515;28;20207;-80
2022/11/05 09:19:51;;;;;;;20.77;11.47;;;;;;;10.80;100.00;99328.97;4991594;28;20249;-81
2022/11/05 09:22:19;;;;;;;23.13;12.90;;;;;;;10.60;100.00;99323.09;4991172;28;20206;-81
2022/11/05 09:24:48;;;;;;;21.27;10.37;;;;;;;11.12;100.00;99316.38;4994337;28;20241;-81
2022/11/05 09:27:16;;;;;;;17.30;10.93;;;;;;;10.99;100.00;99310.97;4994672;28;20195;-80
2022/11/05 09:29:45;;;;;;;17.33;9.63;;;;;;;11.31;100.00;99311.59;4988407;28;20222;-80
2022/11/05 09:32:17;;;;;;;20.97;9.73;;;;;;;11.40;100.00;99312.78;4991415;28;20206;-80
2022/11/05 09:34:47;;;;;;;20.03;10.30;;;;;;;11.08;100.00;99318.34;4986982;28;20203;-81
2022/11/05 09:37:17;;;;;;;18.53;9.70;;;;;;;10.82;100.00;99306.75;4992222;28;20191;-81
2022/11/05 09:39:46;;;;;;;14.63;9.17;;;;;;;10.77;100.00;99314.13;4991607;28;20254;-81
2022/11/05 09:42:21;;;;;;;15.73;9.43;;;;;;;10.89;100.00;99309.84;4991775;28;20195;-79
2022/11/05 09:44:58;;;;;;;14.83;8.27;;;;;;;11.01;100.00;99316.19;4993609;28;20234;-80
2022/11/05 09:47:36;;;;;;;15.57;9.33;;;;;;;10.98;100.00;99316.38;4989182;28;20207;-81
2022/11/05 09:50:12;;;;;;;17.07;9.80;;;;;;;10.57;100.00;99323.31;4991189;28;20253;-80
2022/11/05 09:52:48;;;;;;;14.37;8.67;;;;;;;10.80;100.00;99324.53;4994393;28;20202;-80
2022/11/05 09:55:23;;;;;;;14.97;8.87;;;;;;;10.76;100.00;99317.72;4992907;28;20198;-80
2022/11/05 09:57:57;;;;;;;19.00;9.33;;;;;;;10.75;100.00;99320.47;4994293;28;20227;-80
2022/11/05 10:00:26;;;;;;;13.83;8.50;;;;;;;10.72;100.00;99324.19;4994044;28;20195;-80
2022/11/05 10:02:58;;;;;;;14.10;8.57;;;;;;;10.87;100.00;99323.19;4993982;28;20191;-80
2022/11/05 10:05:28;;;;;;;16.10;8.87;;;;;;;11.16;100.00;99320.50;4950164;29;20220;-80
2022/11/05 10:08:01;;;;;;;21.00;9.40;;;;;;;11.30;100.00;99322.31;4949787;29;20231;-80
2022/11/05 10:10:37;;;;;;;16.60;8.90;;;;;;;11.44;100.00;99331.06;4953460;28;20188;-80
2022/11/05 10:13:16;;;;;;;16.13;9.43;;;;;;;10.98;100.00;99329.63;4949831;29;20201;-81
2022/11/05 10:15:55;;;;;;;14.57;8.27;;;;;;;11.24;100.00;99338.59;4951142;29;20195;-80
2022/11/05 10:18:31;;;;;;;14.97;9.13;;;;;;;11.26;100.00;99334.03;4948651;29;20204;-80
2022/11/05 10:21:00;;;;;;;14.97;8.67;;;;;;;11.40;100.00;99331.38;4953052;28;20204;-80
2022/11/05 10:23:29;;;;;;;15.17;9.07;;;;;;;11.55;100.00;99325.03;4967159;28;20237;-80
2022/11/05 10:26:03;;;;;;;13.40;8.27;;;;;;;11.55;100.00;99329.50;4993802;28;20250;-80
2022/11/05 10:28:34;;;;;;;11.30;7.77;;;;;;;11.52;100.00;99335.00;4991114;28;20237;-80
2022/11/05 10:31:06;;;;;;;15.17;7.37;;;;;;;11.66;100.00;99333.16;4993798;28;20199;-80
2022/11/05 10:33:46;;;;;;;11.07;7.20;;;;;;;11.73;100.00;99328.28;4992327;28;20245;-80
2022/11/05 10:36:20;;;;;;;10.77;6.80;;;;;;;12.00;100.00;99330.97;4972422;28;20218;-80
2022/11/05 10:38:50;;;;;;;15.13;7.60;;;;;;;12.24;100.00;99326.63;4972533;28;20195;-81
2022/11/05 10:41:33;;;;;;;17.33;7.03;;;;;;;12.38;100.00;99335.47;4972234;28;20204;-80
2022/11/05 10:44:13;;;;;;;10.60;6.80;;;;;;;12.47;100.00;99327.72;4970170;28;20207;-80
2022/11/05 10:47:02;;;;;;;11.60;7.20;;;;;;;12.69;100.00;99327.06;4971605;28;20230;-81
2022/11/05 10:49:46;;;;;;;10.97;6.87;;;;;;;12.95;100.00;99332.38;4968334;28;20230;-80
2022/11/05 10:52:24;;;;;;;11.03;6.83;;;;;;;12.61;100.00;99329.41;4970130;28;20231;-81
2022/11/05 10:54:55;;;;;;;14.27;7.20;;;;;;;12.44;100.00;99333.22;4983538;28;20191;-80
2022/11/05 10:57:33;;;;;;;11.77;6.60;;;;;;;12.35;100.00;99340.97;4988228;28;20206;-80
2022/11/05 11:00:25;;;;;;;13.40;7.27;;;;;;;12.24;100.00;99334.59;4935307;29;20223;-80
2022/11/05 11:02:55;;;;;;;9.90;6.40;;;;;;;12.11;100.00;99338.19;4933478;29;20193;-80
2022/11/05 11:05:30;;;;;;;11.37;6.33;;;;;;;12.06;100.00;99329.69;4932819;29;20201;-80
2022/11/05 11:08:06;;;;;;;11.57;6.83;;;;;;;12.44;100.00;99333.22;4933456;29;20259;-80
2022/11/05 11:10:42;;;;;;;12.83;7.00;;;;;;;12.83;100.00;99323.44;4932117;29;20204;-81
2022/11/05 11:13:21;;;;;;;13.07;7.07;;;;;;;12.24;100.00;99331.94;4932141;29;20208;-81
2022/11/05 11:15:50;;;;;;;12.10;7.23;;;;;;;12.52;100.00;99328.25;4933852;29;20208;-81
2022/11/05 11:18:30;;;;;;;10.87;6.77;;;;;;;12.75;100.00;99323.16;4939306;28;20518;-81
2022/11/05 11:21:14;;;;;;;12.00;7.53;;;;;;;12.90;100.00;99327.38;4991824;28;20203;-81
2022/11/05 11:23:53;;;;;;;9.03;6.50;;;;;;;12.93;100.00;99321.81;4993221;28;20203;-81
2022/11/05 11:26:23;;;;;;;15.27;9.07;;;;;;;12.94;100.00;99317.38;4990583;28;20218;-81
2022/11/05 11:28:56;;;;;;;16.07;6.23;;;;;;;13.00;100.00;99328.41;4989091;28;20195;-81
2022/11/05 11:31:27;;;;;;;8.00;5.80;;;;;;;13.38;100.00;99322.19;4987811;28;20230;-81
2022/11/05 11:34:00;;;;;;;10.27;5.43;;;;;;;13.75;100.00;99310.53;4991986;28;20199;-81
2022/11/05 11:36:38;;;;;;;9.97;6.70;;;;;;;13.79;100.00;99318.28;4990749;28;20199;-81
2022/11/05 11:39:18;;;;;;;12.73;6.30;;;;;;;13.77;100.00;99307.75;4990818;28;20210;-80
2022/11/05 11:41:51;;;;;;;11.10;6.73;;;;;;;13.63;100.00;99311.44;4987955;28;20257;-81
2022/11/05 11:44:25;;;;;;;15.80;10.23;;;;;;;14.17;100.00;99305.56;4989052;28;20199;-81
2022/11/05 11:47:03;;;;;;;9.50;6.07;;;;;;;14.77;100.00;99303.66;4993190;28;20218;-80
2022/11/05 11:49:42;;;;;;;7.73;5.03;;;;;;;14.84;100.00;99303.03;4951027;29;20211;-81
2022/11/05 11:52:18;;;;;;;7.17;4.87;;;;;;;14.69;100.00;99296.25;4948765;29;20834;-81
2022/11/05 11:54:47;;;;;;;9.93;6.27;;;;;;;14.68;100.00;99291.03;4944947;29;20677;-81
2022/11/05 11:57:25;;;;;;;10.30;4.90;;;;;;;14.96;100.00;99301.22;4950350;28;20730;-81
2022/11/05 11:59:54;;;;;;;6.17;4.47;;;;;;;15.17;100.00;99293.31;4953507;29;20197;-81
2022/11/05 12:03:09;;;;;;;9.50;4.70;;;;;;;13.54;100.00;99298.81;4955877;29;20196;-81
2022/11/05 12:05:45;;;;;;;7.67;4.90;;;;;;;13.82;100.00;99300.28;4955579;29;20192;-80
2022/11/05 12:08:42;;;;;;;6.53;4.27;;;;;;;14.18;100.00;99291.28;4953704;29;20216;-80
2022/11/05 12:11:26;;;;;;;7.67;3.97;;;;;;;13.01;100.00;99294.69;4955562;29;20214;-80
2022/11/05 12:14:01;;;;;;;5.90;4.30;;;;;;;12.21;100.00;99294.97;4954097;29;20604;-80
2022/11/05 12:16:50;;;;;;;10.63;4.80;;;;;;;12.35;100.00;99287.84;4955337;29;20226;-80
2022/11/05 12:19:33;;;;;;;7.67;4.70;;;;;;;12.83;100.00;99288.88;4953928;29;20232;-80
2022/11/05 12:22:08;;;;;;;6.93;4.60;;;;;;;13.02;100.00;99294.56;4975027;28;20239;-81
2022/11/05 12:25:04;;;;;;;6.23;3.77;;;;;;;13.46;100.00;99287.88;4941172;28;20310;-80
2022/11/05 12:27:48;;;;;;;6.53;4.60;;;;;;;12.97;100.00;99282.59;4977299;28;20247;-80
2022/11/05 12:30:18;;;;;;;8.30;5.27;;;;;;;13.06;100.00;99284.59;4976097;28;20195;-80